Jud, North Dakota
Current Conditions -  °F | °C
As of 3:56 AM on Thursday 23 Oct 2014 (Local Time) from KJMS Reporting Station
Clear Clear  
Wind Chill: 38°   Ceiling: Unl
Heat Index: 42°   Visibility: 10mi
Dew Point: 37°   Wind: 6mph
Humidity: 82%   Direction: 240°WSW
Pressure: 29.89"   Gusts: NA
Location:  46.53°N, 98.9°W
Report Text: KJMS 230856Z AUTO 24005KT 10SM CLR 06/03 A2989 RMK AO2 SLP129 T00560028 58001
Loading
Personal Weather Stations






























Interactive Weather Map
Tropical Storm Tracking
New forecast layout! Learn more

10-Day Weather Forecast

Advertisements
Track Severe Weather on mobile